createdAt,value
2019-03-16T00:01:57.483Z,27.67
2019-03-16T00:04:22.653Z,27.90
2019-03-16T00:06:51.050Z,28.50
2019-03-16T00:09:19.456Z,28.07
2019-03-16T00:11:47.981Z,26.50
2019-03-16T00:14:16.542Z,30.50
2019-03-16T00:16:44.899Z,29.73
2019-03-16T00:19:13.287Z,29.10
2019-03-16T00:21:41.687Z,29.47
2019-03-16T00:24:10.231Z,29.23
2019-03-16T00:26:38.999Z,29.10
2019-03-16T00:29:07.546Z,27.97
2019-03-16T00:31:36.311Z,28.23
2019-03-16T00:34:04.981Z,27.70
2019-03-16T00:36:33.687Z,31.03
2019-03-16T00:39:02.063Z,29.27
2019-03-16T00:41:30.461Z,26.83
2019-03-16T00:43:58.838Z,29.63
2019-03-16T00:46:27.673Z,28.30
2019-03-16T00:48:56.361Z,28.40
2019-03-16T00:51:25.052Z,26.17
2019-03-16T00:53:53.702Z,28.43
2019-03-16T00:56:22.146Z,28.40
2019-03-16T00:58:50.532Z,28.17
2019-03-16T01:01:18.922Z,25.23
2019-03-16T01:03:47.308Z,24.50
2019-03-16T01:06:15.711Z,26.13
2019-03-16T01:08:44.336Z,21.27
2019-03-16T01:11:12.726Z,21.63
2019-03-16T01:13:41.123Z,20.40
2019-03-16T01:16:09.524Z,20.87
2019-03-16T01:18:37.910Z,20.43
2019-03-16T01:21:06.372Z,21.00
2019-03-16T01:23:34.766Z,20.90
2019-03-16T01:26:03.428Z,19.57
2019-03-16T01:28:31.811Z,19.90
2019-03-16T01:31:00.197Z,21.37
2019-03-16T01:33:28.590Z,21.67
2019-03-16T01:35:57.246Z,22.57
2019-03-16T01:38:25.708Z,27.07
2019-03-16T01:40:54.332Z,21.97
2019-03-16T01:43:22.728Z,21.50
2019-03-16T01:45:51.112Z,21.70
2019-03-16T01:48:19.902Z,20.97
2019-03-16T01:50:48.604Z,22.30
2019-03-16T01:53:17.038Z,21.37
2019-03-16T01:55:45.397Z,21.57
2019-03-16T01:58:14.047Z,18.93
2019-03-16T02:00:42.607Z,18.83
2019-03-16T02:03:11.027Z,18.23
2019-03-16T02:05:39.731Z,19.30
2019-03-16T02:08:08.349Z,19.77
2019-03-16T02:10:36.801Z,19.97
2019-03-16T02:13:05.436Z,18.97
2019-03-16T02:15:34.060Z,20.30
2019-03-16T02:18:02.689Z,19.90
2019-03-16T02:20:31.089Z,20.23
2019-03-16T02:22:59.468Z,19.87
2019-03-16T02:25:27.955Z,20.17
2019-03-16T02:27:56.322Z,20.33
2019-03-16T02:30:25.014Z,21.00
2019-03-16T02:32:53.424Z,21.23
2019-03-16T02:35:21.818Z,21.37
2019-03-16T02:37:50.212Z,20.70
2019-03-16T02:40:18.944Z,20.93
2019-03-16T02:42:48.039Z,20.60
2019-03-16T02:45:16.446Z,20.60
2019-03-16T02:47:45.110Z,20.20
2019-03-16T02:50:13.836Z,20.80
2019-03-16T02:52:42.223Z,19.80
2019-03-16T02:55:10.697Z,20.57
2019-03-16T02:57:39.096Z,20.53
2019-03-16T03:00:12.875Z,21.07
2019-03-16T03:02:41.309Z,20.73
2019-03-16T03:05:10.286Z,20.03
2019-03-16T03:07:38.679Z,19.83
2019-03-16T03:10:10.005Z,21.10
2019-03-16T03:12:38.392Z,21.00
2019-03-16T03:15:08.101Z,21.67
2019-03-16T03:17:36.983Z,21.90
2019-03-16T03:20:07.623Z,20.77
2019-03-16T03:22:36.443Z,21.27
2019-03-16T03:25:05.847Z,20.50
2019-03-16T03:27:34.463Z,20.60
2019-03-16T03:30:02.922Z,21.17
2019-03-16T03:32:31.387Z,21.57
2019-03-16T03:34:59.735Z,22.33
2019-03-16T03:37:28.339Z,21.40
2019-03-16T03:39:56.747Z,21.13
2019-03-16T03:42:25.148Z,21.97
2019-03-16T03:44:53.771Z,22.23
2019-03-16T03:47:22.158Z,22.00
2019-03-16T03:49:50.558Z,21.73
2019-03-16T03:52:18.942Z,23.27
2019-03-16T03:54:47.660Z,23.60
2019-03-16T03:57:16.349Z,21.83
2019-03-16T03:59:44.733Z,22.47
2019-03-16T04:02:13.177Z,22.60
2019-03-16T04:04:41.931Z,22.07
2019-03-16T04:07:10.719Z,23.53
2019-03-16T04:09:39.118Z,22.83
2019-03-16T04:12:07.507Z,24.77
2019-03-16T04:14:36.317Z,24.83
2019-03-16T04:17:04.815Z,25.10
2019-03-16T04:19:33.224Z,26.23
2019-03-16T04:22:01.981Z,23.73
2019-03-16T04:24:30.724Z,26.27
2019-03-16T04:27:14.561Z,25.17
2019-03-16T04:29:29.237Z,25.50
2019-03-16T04:31:57.743Z,26.63
2019-03-16T04:34:29.576Z,25.20
2019-03-16T04:36:56.506Z,25.10
2019-03-16T04:39:25.024Z,25.70
2019-03-16T04:41:53.492Z,26.63
2019-03-16T04:44:21.899Z,26.03
2019-03-16T04:46:50.467Z,24.50
2019-03-16T04:49:18.863Z,25.87
2019-03-16T04:51:47.259Z,25.50
2019-03-16T04:54:16.118Z,25.87
2019-03-16T04:56:44.770Z,26.90
2019-03-16T04:59:13.464Z,25.97
2019-03-16T05:01:42.186Z,25.83
2019-03-16T05:04:10.564Z,25.77
2019-03-16T05:06:39.306Z,25.90
2019-03-16T05:09:08.074Z,25.43
2019-03-16T05:11:36.476Z,24.00
2019-03-16T05:14:05.433Z,24.03
2019-03-16T05:16:33.776Z,24.40
2019-03-16T05:19:02.183Z,24.40
2019-03-16T05:21:30.634Z,23.93
2019-03-16T05:23:59.023Z,24.00
2019-03-16T05:26:28.287Z,24.47
2019-03-16T05:28:56.685Z,24.07
2019-03-16T05:31:25.080Z,24.93
2019-03-16T05:33:53.469Z,23.20
2019-03-16T05:36:21.884Z,24.83
2019-03-16T05:38:50.263Z,25.87
2019-03-16T05:41:18.814Z,25.23
2019-03-16T05:43:47.966Z,24.60
2019-03-16T05:46:16.428Z,23.70
2019-03-16T05:48:44.825Z,26.73
2019-03-16T05:51:13.211Z,25.27
2019-03-16T05:53:41.707Z,23.37
2019-03-16T05:56:10.485Z,25.97
2019-03-16T05:58:38.873Z,26.23
2019-03-16T06:01:07.283Z,25.77
2019-03-16T06:03:35.679Z,25.30
2019-03-16T06:06:04.398Z,26.30
2019-03-16T06:08:32.886Z,26.80
2019-03-16T06:11:01.285Z,27.77
2019-03-16T06:13:29.953Z,27.53
2019-03-16T06:15:58.356Z,27.37
2019-03-16T06:18:26.913Z,28.40
2019-03-16T06:20:55.368Z,26.27
2019-03-16T06:23:24.072Z,27.40
2019-03-16T06:25:52.608Z,27.10
2019-03-16T06:28:21.034Z,26.60
2019-03-16T06:30:49.437Z,27.73
2019-03-16T06:33:17.826Z,29.70
2019-03-16T06:35:46.267Z,25.50
2019-03-16T06:38:14.660Z,25.47
2019-03-16T06:40:43.085Z,27.40
2019-03-16T06:43:11.532Z,28.60
2019-03-16T06:45:40.035Z,26.70
2019-03-16T06:48:08.789Z,25.90
2019-03-16T06:50:37.189Z,25.27
2019-03-16T06:53:05.678Z,25.80
2019-03-16T06:55:34.065Z,25.50
2019-03-16T06:58:02.482Z,26.47
2019-03-16T07:00:30.873Z,24.50
2019-03-16T07:02:59.577Z,22.87
2019-03-16T07:05:37.739Z,24.70
2019-03-16T07:07:58.091Z,25.20
2019-03-16T07:10:26.481Z,25.00
2019-03-16T07:12:55.240Z,26.00
2019-03-16T07:15:23.625Z,25.23
2019-03-16T07:17:52.024Z,24.73
2019-03-16T07:20:20.418Z,23.37
2019-03-16T07:22:48.816Z,22.93
2019-03-16T07:25:17.439Z,23.53
2019-03-16T07:27:45.860Z,24.37
2019-03-16T07:30:15.028Z,22.60
2019-03-16T07:32:43.710Z,22.97
2019-03-16T07:35:12.216Z,23.83
2019-03-16T07:37:40.617Z,24.00
2019-03-16T07:40:11.836Z,23.40
2019-03-16T07:42:40.202Z,21.57
2019-03-16T07:45:10.121Z,22.80
2019-03-16T07:47:38.794Z,21.90
2019-03-16T07:50:09.190Z,21.57
2019-03-16T07:52:37.597Z,21.77
2019-03-16T07:55:07.128Z,22.77
2019-03-16T07:57:40.536Z,22.40
2019-03-16T08:00:09.006Z,21.57
2019-03-16T08:02:37.436Z,21.10
2019-03-16T08:05:17.226Z,22.23
2019-03-16T08:07:36.558Z,20.13
2019-03-16T08:10:07.943Z,20.80
2019-03-16T08:12:36.355Z,21.63
2019-03-16T08:15:06.523Z,21.67
2019-03-16T08:17:34.869Z,20.87
2019-03-16T08:20:04.143Z,20.80
2019-03-16T08:22:32.531Z,20.23
2019-03-16T08:25:00.950Z,20.03
2019-03-16T08:27:29.335Z,19.40
2019-03-16T08:29:57.719Z,20.50
2019-03-16T08:32:26.125Z,20.07
2019-03-16T08:34:54.514Z,19.23
2019-03-16T08:37:22.934Z,19.23
2019-03-16T08:39:51.414Z,19.77
2019-03-16T08:42:19.840Z,19.13
2019-03-16T08:44:48.325Z,18.93
2019-03-16T08:47:16.996Z,20.67
2019-03-16T08:49:45.415Z,21.20
2019-03-16T08:52:13.821Z,21.10
2019-03-16T08:54:42.210Z,20.70
2019-03-16T08:57:10.599Z,19.67
2019-03-16T08:59:39.320Z,21.77
2019-03-16T09:02:07.705Z,21.37
2019-03-16T09:04:36.180Z,21.30
2019-03-16T09:07:04.664Z,21.50
2019-03-16T09:09:33.058Z,19.13
2019-03-16T09:12:01.454Z,19.23
2019-03-16T09:14:29.993Z,20.80
2019-03-16T09:16:58.490Z,19.00
2019-03-16T09:19:27.138Z,17.77
2019-03-16T09:21:55.528Z,18.80
2019-03-16T09:24:24.126Z,19.40
2019-03-16T09:26:52.526Z,17.60
2019-03-16T09:29:20.924Z,18.40
2019-03-16T09:31:49.651Z,19.33
2019-03-16T09:34:18.065Z,18.27
2019-03-16T09:36:47.023Z,18.87
2019-03-16T09:39:15.714Z,18.67
2019-03-16T09:41:44.835Z,19.73
2019-03-16T09:44:13.606Z,19.83
2019-03-16T09:46:42.013Z,20.03
2019-03-16T09:49:10.591Z,19.97
2019-03-16T09:51:39.512Z,18.67
2019-03-16T09:54:08.211Z,19.17
2019-03-16T09:56:36.676Z,18.60
2019-03-16T09:59:05.174Z,17.80
2019-03-16T10:01:33.605Z,16.77
2019-03-16T10:04:02.419Z,18.83
2019-03-16T10:06:30.805Z,15.00
2019-03-16T10:08:59.195Z,15.57
2019-03-16T10:11:27.943Z,16.13
2019-03-16T10:13:56.388Z,15.90
2019-03-16T10:16:24.841Z,14.80
2019-03-16T10:18:53.563Z,14.80
2019-03-16T10:21:22.039Z,15.73
2019-03-16T10:23:50.523Z,14.53
2019-03-16T10:26:19.360Z,14.77
2019-03-16T10:28:50.422Z,14.93
2019-03-16T10:31:18.959Z,15.40
2019-03-16T10:33:47.503Z,14.73
2019-03-16T10:36:15.913Z,13.63
2019-03-16T10:38:44.647Z,13.67
2019-03-16T10:41:13.280Z,13.90
2019-03-16T10:43:43.509Z,12.40
2019-03-16T10:46:11.990Z,12.70
2019-03-16T10:48:40.804Z,12.37
2019-03-16T10:51:09.214Z,12.67
2019-03-16T10:53:38.312Z,13.53
2019-03-16T10:56:06.706Z,11.60
2019-03-16T10:58:35.198Z,11.03
2019-03-16T11:01:04.025Z,10.60
2019-03-16T11:03:32.821Z,10.53
2019-03-16T11:06:01.994Z,11.80
2019-03-16T11:08:30.511Z,11.40
2019-03-16T11:10:58.896Z,10.77
2019-03-16T11:13:27.360Z,10.57
2019-03-16T11:15:55.742Z,10.10
2019-03-16T11:18:24.144Z,8.80
2019-03-16T11:20:52.522Z,9.47
2019-03-16T11:23:20.917Z,9.83
2019-03-16T11:25:49.309Z,9.53
2019-03-16T11:28:17.695Z,9.50
2019-03-16T11:30:46.202Z,9.37
2019-03-16T11:33:14.608Z,9.70
2019-03-16T11:35:43.160Z,9.43
2019-03-16T11:38:11.563Z,8.80
2019-03-16T11:40:40.040Z,9.17
2019-03-16T11:43:08.474Z,9.83
2019-03-16T11:45:36.912Z,9.40
2019-03-16T11:48:05.480Z,10.43
2019-03-16T11:50:33.954Z,9.30
2019-03-16T11:53:02.828Z,10.10
2019-03-16T11:55:31.485Z,9.90
2019-03-16T11:58:00.027Z,9.40
2019-03-16T12:00:29.063Z,9.67
2019-03-16T12:02:57.589Z,8.73
2019-03-16T12:05:25.967Z,9.00
2019-03-16T12:07:54.572Z,9.17
2019-03-16T12:10:25.518Z,9.13
2019-03-16T12:12:53.951Z,8.87
2019-03-16T12:15:22.340Z,9.37
2019-03-16T12:17:50.734Z,10.57
2019-03-16T12:20:19.116Z,9.83
2019-03-16T12:22:48.389Z,9.77
2019-03-16T12:25:16.779Z,9.30
2019-03-16T12:27:45.195Z,9.50
2019-03-16T12:30:15.094Z,9.17
2019-03-16T12:32:43.858Z,9.60
2019-03-16T12:35:12.274Z,9.63
2019-03-16T12:37:40.713Z,9.73
2019-03-16T12:40:15.507Z,9.10
2019-03-16T12:42:44.232Z,9.60
2019-03-16T12:45:15.383Z,9.60
2019-03-16T12:47:43.777Z,9.10
2019-03-16T12:50:12.323Z,9.63
2019-03-16T12:52:41.159Z,9.73
2019-03-16T12:55:11.677Z,9.07
2019-03-16T12:57:40.196Z,9.33
2019-03-16T13:00:13.713Z,8.87
2019-03-16T13:02:42.086Z,9.87
2019-03-16T13:05:11.238Z,9.90
2019-03-16T13:07:39.607Z,9.90
2019-03-16T13:10:18.313Z,9.40
2019-03-16T13:12:47.001Z,9.70
2019-03-16T13:15:15.791Z,9.40
2019-03-16T13:17:44.211Z,9.40
2019-03-16T13:20:16.455Z,9.10
2019-03-16T13:22:45.040Z,9.70
2019-03-16T13:25:13.536Z,8.87
2019-03-16T13:27:42.199Z,10.20
2019-03-16T13:30:15.789Z,9.60
2019-03-16T13:32:45.109Z,9.33
2019-03-16T13:35:13.987Z,9.80
2019-03-16T13:37:42.430Z,9.57
2019-03-16T13:40:13.115Z,9.67
2019-03-16T13:42:41.732Z,9.10
2019-03-16T13:45:10.561Z,9.00
2019-03-16T13:47:38.944Z,9.57
2019-03-16T13:50:15.739Z,7.97
2019-03-16T13:52:44.410Z,9.73
2019-03-16T13:55:13.197Z,8.97
2019-03-16T13:57:41.645Z,9.40
2019-03-16T14:00:18.290Z,9.13
2019-03-16T14:02:46.755Z,10.37
2019-03-16T14:05:15.261Z,9.83
2019-03-16T14:07:43.910Z,9.90
2019-03-16T14:10:18.311Z,10.17
2019-03-16T14:12:47.307Z,9.80
2019-03-16T14:15:16.945Z,9.93
2019-03-16T14:17:45.410Z,10.70
2019-03-16T14:20:15.667Z,9.30
2019-03-16T14:22:44.696Z,9.60
2019-03-16T14:25:13.578Z,10.20
2019-03-16T14:27:41.907Z,9.93
2019-03-16T14:30:29.049Z,9.60
2019-03-16T14:32:43.476Z,9.83
2019-03-16T14:35:12.463Z,10.07
2019-03-16T14:37:40.941Z,9.27
2019-03-16T14:40:12.690Z,9.23
2019-03-16T14:42:41.247Z,9.20
2019-03-16T14:45:16.478Z,10.23
2019-03-16T14:47:44.970Z,9.43
2019-03-16T14:50:16.627Z,8.97
2019-03-16T14:52:45.094Z,9.60
2019-03-16T14:55:13.595Z,10.37
2019-03-16T14:57:42.362Z,9.17
2019-03-16T15:00:15.529Z,9.57
2019-03-16T15:02:46.293Z,9.93
2019-03-16T15:05:14.535Z,9.40
2019-03-16T15:07:42.919Z,9.57
2019-03-16T15:10:13.393Z,9.30
2019-03-16T15:12:42.022Z,9.20
2019-03-16T15:15:12.708Z,9.60
2019-03-16T15:17:41.089Z,9.57
2019-03-16T15:20:10.880Z,9.13
2019-03-16T15:22:39.322Z,10.23
2019-03-16T15:25:11.395Z,9.27
2019-03-16T15:27:40.036Z,9.40
2019-03-16T15:30:18.920Z,8.77
2019-03-16T15:32:47.361Z,9.03
2019-03-16T15:35:16.002Z,9.97
2019-03-16T15:37:44.400Z,9.43
2019-03-16T15:40:16.714Z,9.17
2019-03-16T15:42:45.131Z,9.63
2019-03-16T15:45:21.361Z,10.00
2019-03-16T15:47:49.962Z,9.53
2019-03-16T15:50:18.401Z,9.50
2019-03-16T15:52:46.844Z,10.00
2019-03-16T15:55:15.304Z,10.00
2019-03-16T15:57:45.010Z,9.83
2019-03-16T16:00:18.418Z,10.47
2019-03-16T16:02:47.072Z,9.57
2019-03-16T16:05:15.445Z,9.00
2019-03-16T16:07:43.863Z,9.83
2019-03-16T16:10:17.225Z,9.20
2019-03-16T16:12:45.699Z,9.30
2019-03-16T16:15:15.002Z,9.23
2019-03-16T16:17:43.458Z,8.73
2019-03-16T16:20:20.620Z,9.50
2019-03-16T16:22:49.011Z,9.30
2019-03-16T16:25:17.393Z,9.40
2019-03-16T16:27:45.766Z,9.40
2019-03-16T16:30:19.335Z,9.57
2019-03-16T16:32:47.973Z,9.37
2019-03-16T16:35:16.977Z,9.37
2019-03-16T16:37:45.434Z,9.00
2019-03-16T16:40:21.869Z,8.90
2019-03-16T16:42:50.320Z,8.70
2019-03-16T16:45:18.939Z,8.70
2019-03-16T16:47:47.587Z,8.43
2019-03-16T16:50:25.557Z,8.60
2019-03-16T16:52:54.120Z,8.90
2019-03-16T16:55:22.493Z,8.67
2019-03-16T16:57:51.063Z,8.00
2019-03-16T17:00:24.711Z,8.43
2019-03-16T17:02:53.147Z,9.00
2019-03-16T17:05:21.573Z,8.97
2019-03-16T17:07:50.101Z,8.20
2019-03-16T17:10:19.612Z,8.27
2019-03-16T17:12:48.267Z,8.00
2019-03-16T17:15:20.921Z,7.80
2019-03-16T17:17:49.310Z,8.20
2019-03-16T17:20:17.799Z,8.77
2019-03-16T17:22:46.517Z,8.20
2019-03-16T17:25:15.936Z,8.20
2019-03-16T17:27:44.322Z,8.20
2019-03-16T17:30:24.873Z,7.80
2019-03-16T17:32:53.268Z,8.30
2019-03-16T17:35:21.695Z,7.90
2019-03-16T17:37:50.519Z,8.70
2019-03-16T17:40:18.894Z,8.67
2019-03-16T17:42:47.356Z,9.27
2019-03-16T17:45:15.845Z,8.03
2019-03-16T17:47:44.662Z,8.40
2019-03-16T17:50:14.174Z,8.13
2019-03-16T17:52:42.809Z,7.93
2019-03-16T17:55:14.233Z,8.10
2019-03-16T17:57:45.298Z,8.40
2019-03-16T18:00:18.479Z,9.43
2019-03-16T18:02:51.661Z,9.40
2019-03-16T18:05:17.329Z,9.50
2019-03-16T18:07:45.751Z,9.83
2019-03-16T18:10:14.947Z,9.23
2019-03-16T18:12:43.414Z,10.63
2019-03-16T18:15:14.211Z,14.67
2019-03-16T18:17:42.692Z,11.67
2019-03-16T18:20:17.397Z,13.13
2019-03-16T18:22:46.726Z,11.43
2019-03-16T18:25:15.781Z,12.60
2019-03-16T18:27:44.172Z,12.27
2019-03-16T18:30:16.174Z,12.43
2019-03-16T18:32:44.836Z,11.63
2019-03-16T18:35:13.221Z,13.00
2019-03-16T18:37:41.688Z,11.80
2019-03-16T18:40:15.503Z,13.07
2019-03-16T18:42:43.905Z,11.37
2019-03-16T18:45:21.331Z,10.27
2019-03-16T18:47:49.755Z,10.53
2019-03-16T18:50:18.253Z,11.20
2019-03-16T18:52:46.733Z,11.40
2019-03-16T18:55:15.425Z,13.60
2019-03-16T18:57:44.097Z,12.10
2019-03-16T19:00:15.061Z,11.23
2019-03-16T19:02:43.723Z,10.60
2019-03-16T19:05:12.644Z,11.00
2019-03-16T19:07:41.132Z,11.10
2019-03-16T19:10:18.792Z,11.30
2019-03-16T19:12:47.242Z,12.33
2019-03-16T19:15:17.891Z,10.53
2019-03-16T19:17:57.940Z,11.03
2019-03-16T19:20:17.626Z,11.90
2019-03-16T19:22:46.455Z,10.43
2019-03-16T19:25:22.341Z,11.37
2019-03-16T19:27:51.361Z,10.73
2019-03-16T19:30:20.150Z,10.93
2019-03-16T19:32:48.630Z,11.27
2019-03-16T19:35:17.153Z,11.30
2019-03-16T19:37:45.602Z,12.40
2019-03-16T19:40:18.824Z,11.33
2019-03-16T19:42:47.536Z,11.47
2019-03-16T19:45:16.427Z,10.80
2019-03-16T19:47:44.869Z,11.13
2019-03-16T19:50:16.337Z,11.20
2019-03-16T19:52:44.786Z,10.80
2019-03-16T19:55:14.704Z,11.50
2019-03-16T19:57:43.794Z,11.27
2019-03-16T20:00:18.498Z,10.90
2019-03-16T20:02:51.029Z,10.77
2019-03-16T20:05:17.085Z,10.43
2019-03-16T20:07:45.836Z,11.67
2019-03-16T20:10:15.580Z,11.00
2019-03-16T20:12:44.225Z,11.07
2019-03-16T20:15:14.159Z,10.70
2019-03-16T20:17:42.615Z,10.70
2019-03-16T20:20:15.777Z,11.73
2019-03-16T20:22:44.190Z,10.43
2019-03-16T20:25:12.892Z,11.10
2019-03-16T20:27:41.488Z,10.20
2019-03-16T20:30:14.007Z,11.50
2019-03-16T20:32:42.835Z,10.70
2019-03-16T20:35:11.560Z,12.00
2019-03-16T20:37:40.232Z,10.97
2019-03-16T20:40:13.772Z,10.57
2019-03-16T20:42:42.181Z,12.23
2019-03-16T20:45:11.884Z,11.50
2019-03-16T20:47:40.583Z,11.40
2019-03-16T20:50:14.787Z,12.10
2019-03-16T20:52:43.236Z,11.93
2019-03-16T20:55:11.876Z,10.80
2019-03-16T20:57:41.046Z,11.77
2019-03-16T21:00:12.528Z,11.20
2019-03-16T21:02:40.934Z,11.70
2019-03-16T21:05:10.731Z,12.27
2019-03-16T21:07:39.176Z,11.97
2019-03-16T21:10:12.140Z,11.30
2019-03-16T21:12:40.599Z,11.10
2019-03-16T21:15:11.474Z,11.67
2019-03-16T21:17:39.938Z,12.03
2019-03-16T21:20:16.138Z,11.67
2019-03-16T21:22:44.614Z,11.10
2019-03-16T21:25:14.548Z,11.80
2019-03-16T21:27:42.944Z,12.90
2019-03-16T21:30:14.371Z,11.70
2019-03-16T21:32:42.771Z,11.63
2019-03-16T21:35:11.227Z,11.83
2019-03-16T21:37:39.628Z,11.10
2019-03-16T21:40:10.768Z,11.73
2019-03-16T21:42:39.504Z,10.80
2019-03-16T21:45:12.164Z,10.70
2019-03-16T21:47:40.544Z,11.50
2019-03-16T21:50:13.564Z,11.53
2019-03-16T21:52:44.419Z,12.30
2019-03-16T21:55:13.586Z,14.00
2019-03-16T21:57:42.403Z,13.13
2019-03-16T22:00:13.185Z,11.33
2019-03-16T22:02:41.615Z,11.17
2019-03-16T22:05:10.827Z,10.90
2019-03-16T22:07:39.587Z,12.27
2019-03-16T22:10:20.070Z,11.93
2019-03-16T22:12:48.496Z,12.20
2019-03-16T22:15:17.509Z,11.80
2019-03-16T22:17:46.470Z,10.27
2019-03-16T22:20:21.690Z,10.80
2019-03-16T22:22:50.097Z,10.30
2019-03-16T22:25:18.917Z,10.93
2019-03-16T22:27:47.306Z,11.27
2019-03-16T22:30:17.097Z,10.30
2019-03-16T22:32:45.549Z,11.60
2019-03-16T22:35:14.282Z,10.90
2019-03-16T22:37:42.965Z,11.03
2019-03-16T22:40:17.368Z,10.20
2019-03-16T22:42:45.800Z,10.50
2019-03-16T22:45:15.286Z,10.63
2019-03-16T22:47:43.949Z,11.87
2019-03-16T22:50:19.923Z,11.20
2019-03-16T22:52:48.513Z,11.00
2019-03-16T22:55:16.893Z,10.40
2019-03-16T22:57:45.689Z,11.20
2019-03-16T23:00:21.047Z,12.07
2019-03-16T23:02:49.490Z,11.03
2019-03-16T23:05:18.010Z,10.77
2019-03-16T23:07:46.521Z,11.10
2019-03-16T23:10:15.012Z,11.20
2019-03-16T23:12:43.507Z,11.03
2019-03-16T23:15:12.325Z,10.67
2019-03-16T23:17:40.791Z,10.97
2019-03-16T23:20:10.126Z,11.90
2019-03-16T23:22:38.878Z,11.43
2019-03-16T23:25:09.808Z,11.17
2019-03-16T23:27:38.495Z,11.80
2019-03-16T23:30:08.528Z,11.87
2019-03-16T23:32:36.922Z,10.37
2019-03-16T23:35:07.144Z,10.40
2019-03-16T23:37:35.801Z,10.57
2019-03-16T23:40:06.766Z,9.93
2019-03-16T23:42:35.421Z,9.57
2019-03-16T23:45:05.959Z,9.60
2019-03-16T23:47:34.348Z,9.40
2019-03-16T23:50:02.823Z,10.43
2019-03-16T23:52:31.227Z,10.40
2019-03-16T23:54:59.877Z,10.40
2019-03-16T23:57:28.266Z,9.70
2019-03-16T23:59:56.656Z,10.47
